createdAt,value
2022-08-29T00:00:17.904Z,73.25
2022-08-29T00:02:19.641Z,73.19
2022-08-29T00:04:21.173Z,73.75
2022-08-29T00:06:22.524Z,74.44
2022-08-29T00:08:23.853Z,73.83
2022-08-29T00:10:25.532Z,74.41
2022-08-29T00:12:26.857Z,73.62
2022-08-29T00:14:28.599Z,73.59
2022-08-29T00:16:29.984Z,73.98
2022-08-29T00:18:31.327Z,73.49
2022-08-29T00:20:34.342Z,73.21
2022-08-29T00:22:36.114Z,73.26
2022-08-29T00:24:37.414Z,73.53
2022-08-29T00:26:38.811Z,73.42
2022-08-29T00:28:40.118Z,73.73
2022-08-29T00:30:41.435Z,74.47
2022-08-29T00:32:42.823Z,73.63
2022-08-29T00:34:44.127Z,73.43
2022-08-29T00:36:48.907Z,74.85
2022-08-29T00:38:50.940Z,75.04
2022-08-29T00:40:52.616Z,74.66
2022-08-29T00:43:12.347Z,74.86
2022-08-29T00:45:13.676Z,73.58
2022-08-29T00:47:14.978Z,74.19
2022-08-29T00:49:16.285Z,75.20
2022-08-29T00:51:17.663Z,74.66
2022-08-29T00:53:19.839Z,74.31
2022-08-29T00:55:22.563Z,73.97
2022-08-29T00:57:23.866Z,74.36
2022-08-29T00:59:26.010Z,75.25
2022-08-29T01:01:29.140Z,74.53
2022-08-29T01:03:30.518Z,75.00
2022-08-29T01:05:32.350Z,74.30
2022-08-29T01:07:33.843Z,74.23
2022-08-29T01:09:39.313Z,75.03
2022-08-29T01:11:59.200Z,75.20
2022-08-29T01:14:01.202Z,75.26
2022-08-29T01:16:03.043Z,74.97
2022-08-29T01:18:04.890Z,75.28
2022-08-29T01:20:06.210Z,75.36
2022-08-29T01:22:07.598Z,74.99
2022-08-29T01:24:09.896Z,75.15
2022-08-29T01:26:11.839Z,74.65
2022-08-29T01:28:13.452Z,74.41
2022-08-29T01:30:15.260Z,74.73
2022-08-29T01:32:17.199Z,74.82
2022-08-29T01:34:18.631Z,74.71
2022-08-29T01:36:19.947Z,74.99
2022-08-29T01:38:27.709Z,74.54
2022-08-29T01:40:29.141Z,75.15
2022-08-29T01:42:35.429Z,75.21
2022-08-29T01:44:38.874Z,74.56
2022-08-29T01:46:40.195Z,75.21
2022-08-29T01:48:41.511Z,74.27
2022-08-29T01:50:42.866Z,75.13
2022-08-29T01:52:44.175Z,74.98
2022-08-29T01:54:45.551Z,75.30
2022-08-29T01:56:46.926Z,73.86
2022-08-29T01:58:48.233Z,75.78
2022-08-29T02:00:49.636Z,75.60
2022-08-29T02:02:50.970Z,75.31
2022-08-29T02:04:52.279Z,75.46
2022-08-29T02:06:55.670Z,75.06
2022-08-29T02:08:56.982Z,74.89
2022-08-29T02:10:58.581Z,75.59
2022-08-29T02:12:59.895Z,75.94
2022-08-29T02:15:01.335Z,75.27
2022-08-29T02:17:02.725Z,75.56
2022-08-29T02:19:04.078Z,75.80
2022-08-29T02:21:05.382Z,75.85
2022-08-29T02:23:17.294Z,75.06
2022-08-29T02:25:43.676Z,75.85
2022-08-29T02:27:45.222Z,75.74
2022-08-29T02:29:46.605Z,75.99
2022-08-29T02:31:48.717Z,75.54
2022-08-29T02:33:50.229Z,75.96
2022-08-29T02:35:51.551Z,74.88
2022-08-29T02:37:52.930Z,75.08
2022-08-29T02:39:54.411Z,75.06
2022-08-29T02:41:55.764Z,75.48
2022-08-29T02:43:58.712Z,75.92
2022-08-29T02:46:00.035Z,74.79
2022-08-29T02:48:01.413Z,75.52
2022-08-29T02:50:02.803Z,75.17
2022-08-29T02:52:06.677Z,75.15
2022-08-29T02:54:08.140Z,75.48
2022-08-29T02:56:09.928Z,75.30
2022-08-29T02:58:15.987Z,75.62
2022-08-29T03:00:17.498Z,75.55
2022-08-29T03:02:18.874Z,75.28
2022-08-29T03:04:20.211Z,75.74
2022-08-29T03:06:21.619Z,74.90
2022-08-29T03:08:22.952Z,74.86
2022-08-29T03:10:24.259Z,75.09
2022-08-29T03:12:25.598Z,74.87
2022-08-29T03:14:29.552Z,75.68
2022-08-29T03:16:30.918Z,75.84
2022-08-29T03:18:32.299Z,75.38
2022-08-29T03:20:33.638Z,75.29
2022-08-29T03:22:35.016Z,75.60
2022-08-29T03:24:36.466Z,75.35
2022-08-29T03:26:37.770Z,75.81
2022-08-29T03:28:39.117Z,76.03
2022-08-29T03:30:40.431Z,75.33
2022-08-29T03:32:41.739Z,75.74
2022-08-29T03:34:43.990Z,75.23
2022-08-29T03:36:45.318Z,75.20
2022-08-29T03:38:46.712Z,75.83
2022-08-29T03:40:48.151Z,75.83
2022-08-29T03:42:49.521Z,75.72
2022-08-29T03:44:50.879Z,75.74
2022-08-29T03:46:52.371Z,74.99
2022-08-29T03:48:53.750Z,75.61
2022-08-29T03:50:56.535Z,75.57
2022-08-29T03:52:58.133Z,75.31
2022-08-29T03:55:00.167Z,75.35
2022-08-29T03:57:01.475Z,75.67
2022-08-29T03:59:02.803Z,75.75
2022-08-29T04:01:04.114Z,74.84
2022-08-29T04:03:05.575Z,75.72
2022-08-29T04:05:09.828Z,76.08
2022-08-29T04:07:13.224Z,75.43
2022-08-29T04:09:14.576Z,75.92
2022-08-29T04:11:15.968Z,75.70
2022-08-29T04:13:17.283Z,75.99
2022-08-29T04:15:18.590Z,75.86
2022-08-29T04:17:19.911Z,75.23
2022-08-29T04:19:21.284Z,75.73
2022-08-29T04:21:22.674Z,75.69
2022-08-29T04:23:23.971Z,74.89
2022-08-29T04:25:25.275Z,75.33
2022-08-29T04:27:26.626Z,75.81
2022-08-29T04:29:28.004Z,75.75
2022-08-29T04:31:29.400Z,75.20
2022-08-29T04:33:31.262Z,76.44
2022-08-29T04:35:32.625Z,76.19
2022-08-29T04:37:33.938Z,75.62
2022-08-29T04:39:35.238Z,75.83
2022-08-29T04:41:36.804Z,75.27
2022-08-29T04:43:38.154Z,75.61
2022-08-29T04:45:40.629Z,75.76
2022-08-29T04:47:41.962Z,75.82
2022-08-29T04:49:43.364Z,75.09
2022-08-29T04:51:44.666Z,75.68
2022-08-29T04:53:46.688Z,75.32
2022-08-29T04:55:48.051Z,75.61
2022-08-29T04:57:49.419Z,75.02
2022-08-29T04:59:50.850Z,75.67
2022-08-29T05:01:54.401Z,75.36
2022-08-29T05:03:56.560Z,75.54
2022-08-29T05:05:57.981Z,75.35
2022-08-29T05:07:59.318Z,76.12
2022-08-29T05:10:00.996Z,75.99
2022-08-29T05:12:07.095Z,75.60
2022-08-29T05:14:11.068Z,76.10
2022-08-29T05:16:12.467Z,75.58
2022-08-29T05:18:13.912Z,75.11
2022-08-29T05:20:15.495Z,75.88
2022-08-29T05:22:16.795Z,76.03
2022-08-29T05:24:18.164Z,76.04
2022-08-29T05:26:19.498Z,76.07
2022-08-29T05:28:20.819Z,76.04
2022-08-29T05:30:35.143Z,75.99
2022-08-29T05:32:36.819Z,76.11
2022-08-29T05:34:38.415Z,75.45
2022-08-29T05:36:39.740Z,75.65
2022-08-29T05:38:41.046Z,76.20
2022-08-29T05:40:42.432Z,74.84
2022-08-29T05:42:43.876Z,74.02
2022-08-29T05:44:45.268Z,73.90
2022-08-29T05:46:46.716Z,73.65
2022-08-29T05:48:48.550Z,73.28
2022-08-29T05:50:49.858Z,74.47
2022-08-29T05:52:51.189Z,74.01
2022-08-29T05:54:52.499Z,73.82
2022-08-29T05:56:53.843Z,74.24
2022-08-29T05:58:55.156Z,74.09
2022-08-29T06:00:56.474Z,74.18
2022-08-29T06:02:57.938Z,74.41
2022-08-29T06:04:59.350Z,74.42
2022-08-29T06:07:00.657Z,74.51
2022-08-29T06:09:01.999Z,74.35
2022-08-29T06:11:03.311Z,75.43
2022-08-29T06:13:04.626Z,74.94
2022-08-29T06:15:06.583Z,75.16
2022-08-29T06:17:09.269Z,75.03
2022-08-29T06:19:11.889Z,74.91
2022-08-29T06:21:13.191Z,75.15
2022-08-29T06:23:14.532Z,74.87
2022-08-29T06:25:37.947Z,75.24
2022-08-29T06:27:37.251Z,74.59
2022-08-29T06:29:43.494Z,74.87
2022-08-29T06:31:45.210Z,75.58
2022-08-29T06:33:46.520Z,74.92
2022-08-29T06:35:47.850Z,76.08
2022-08-29T06:37:49.159Z,75.32
2022-08-29T06:39:50.534Z,75.43
2022-08-29T06:41:51.905Z,74.99
2022-08-29T06:43:53.211Z,75.21
2022-08-29T06:45:54.579Z,75.14
2022-08-29T06:47:56.111Z,75.01
2022-08-29T06:49:57.420Z,75.00
2022-08-29T06:51:58.830Z,76.08
2022-08-29T06:54:00.263Z,75.64
2022-08-29T06:56:02.362Z,75.81
2022-08-29T06:58:03.701Z,75.20
2022-08-29T07:00:12.419Z,75.98
2022-08-29T07:02:22.801Z,74.64
2022-08-29T07:04:26.725Z,75.22
2022-08-29T07:06:28.339Z,74.40
2022-08-29T07:08:29.649Z,73.72
2022-08-29T07:10:30.951Z,74.26
2022-08-29T07:12:32.310Z,74.04
2022-08-29T07:14:33.624Z,74.20
2022-08-29T07:16:35.591Z,74.56
2022-08-29T07:18:36.908Z,74.79
2022-08-29T07:20:39.393Z,74.54
2022-08-29T07:22:40.875Z,74.75
2022-08-29T07:24:42.195Z,74.58
2022-08-29T07:26:43.662Z,74.94
2022-08-29T07:28:47.233Z,74.49
2022-08-29T07:30:48.746Z,74.89
2022-08-29T07:32:50.182Z,74.82
2022-08-29T07:34:55.820Z,74.59
2022-08-29T07:36:57.476Z,74.34
2022-08-29T07:38:58.800Z,67.72
2022-08-29T07:41:00.203Z,66.89
2022-08-29T07:43:02.154Z,63.55
2022-08-29T07:45:03.498Z,62.71
2022-08-29T07:47:05.046Z,62.99
2022-08-29T07:49:07.146Z,62.02
2022-08-29T07:51:10.681Z,62.58
2022-08-29T07:53:12.124Z,61.77
2022-08-29T07:55:13.598Z,61.11
2022-08-29T07:57:14.894Z,59.90
2022-08-29T07:59:16.224Z,60.25
2022-08-29T08:01:21.028Z,59.57
2022-08-29T08:03:23.075Z,59.96
2022-08-29T08:05:24.483Z,58.35
2022-08-29T08:07:29.387Z,58.07
2022-08-29T08:09:31.011Z,57.14
2022-08-29T08:11:32.351Z,57.31
2022-08-29T08:13:33.748Z,56.85
2022-08-29T08:15:35.085Z,58.35
2022-08-29T08:17:38.900Z,57.33
2022-08-29T08:19:43.295Z,56.91
2022-08-29T08:21:49.632Z,59.49
2022-08-29T08:23:52.241Z,61.57
2022-08-29T08:25:53.585Z,60.03
2022-08-29T08:27:54.952Z,62.27
2022-08-29T08:29:59.737Z,61.85
2022-08-29T08:32:01.392Z,62.40
2022-08-29T08:34:02.810Z,62.57
2022-08-29T08:36:04.137Z,62.86
2022-08-29T08:38:05.451Z,63.09
2022-08-29T08:40:06.881Z,63.27
2022-08-29T08:42:08.383Z,63.54
2022-08-29T08:44:09.712Z,63.53
2022-08-29T08:46:11.383Z,63.85
2022-08-29T08:48:12.761Z,63.92
2022-08-29T08:50:14.131Z,64.06
2022-08-29T08:52:16.106Z,64.06
2022-08-29T08:54:17.473Z,64.18
2022-08-29T08:56:18.856Z,64.36
2022-08-29T08:58:29.027Z,64.76
2022-08-29T09:00:30.692Z,64.65
2022-08-29T09:02:33.750Z,64.83
2022-08-29T09:04:35.179Z,65.00
2022-08-29T09:06:36.555Z,65.15
2022-08-29T09:08:38.074Z,65.22
2022-08-29T09:10:39.414Z,65.28
2022-08-29T09:12:41.236Z,65.40
2022-08-29T09:14:42.660Z,65.54
2022-08-29T09:16:44.019Z,65.86
2022-08-29T09:18:47.885Z,65.85
2022-08-29T09:20:57.018Z,65.99
2022-08-29T09:22:59.105Z,65.88
2022-08-29T09:25:00.448Z,66.05
2022-08-29T09:27:01.760Z,65.91
2022-08-29T09:29:03.195Z,66.16
2022-08-29T09:31:04.583Z,66.14
2022-08-29T09:33:07.705Z,66.12
2022-08-29T09:35:10.037Z,66.32
2022-08-29T09:37:11.607Z,66.55
2022-08-29T09:39:12.924Z,66.41
2022-08-29T09:41:15.216Z,66.51
2022-08-29T09:43:17.083Z,66.57
2022-08-29T09:45:18.548Z,66.40
2022-08-29T09:47:20.636Z,66.41
2022-08-29T09:49:22.569Z,66.81
2022-08-29T09:51:24.507Z,66.59
2022-08-29T09:53:25.969Z,66.56
2022-08-29T09:55:27.425Z,66.11
2022-08-29T09:57:28.774Z,66.45
2022-08-29T09:59:30.157Z,66.87
2022-08-29T10:01:32.433Z,66.70
2022-08-29T10:03:39.142Z,66.27
2022-08-29T10:05:44.268Z,66.71
2022-08-29T10:07:45.684Z,66.29
2022-08-29T10:09:47.002Z,66.41
2022-08-29T10:11:54.262Z,66.88
2022-08-29T10:13:57.661Z,66.71
2022-08-29T10:15:59.026Z,66.72
2022-08-29T10:18:20.116Z,66.82
2022-08-29T10:20:21.736Z,67.00
2022-08-29T10:24:25.758Z,67.25
2022-08-29T10:26:27.127Z,67.04
2022-08-29T10:28:28.435Z,67.27
2022-08-29T10:30:29.803Z,67.04
2022-08-29T10:32:31.283Z,67.32
2022-08-29T10:34:32.599Z,67.20
2022-08-29T10:36:34.246Z,67.39
2022-08-29T10:38:35.598Z,67.39
2022-08-29T10:40:37.903Z,67.40
2022-08-29T10:42:44.569Z,67.65
2022-08-29T10:44:45.890Z,67.42
2022-08-29T10:46:47.207Z,67.52
2022-08-29T10:48:49.075Z,67.34
2022-08-29T10:50:50.644Z,67.38
2022-08-29T10:52:52.428Z,67.55
2022-08-29T10:54:53.759Z,67.64
2022-08-29T10:56:55.077Z,67.32
2022-08-29T10:58:56.935Z,67.68
2022-08-29T11:00:58.408Z,67.75
2022-08-29T11:02:59.808Z,67.69
2022-08-29T11:05:01.172Z,67.85
2022-08-29T11:07:02.565Z,67.68
2022-08-29T11:09:04.000Z,67.78
2022-08-29T11:11:05.403Z,67.84
2022-08-29T11:13:06.797Z,67.75
2022-08-29T11:15:08.543Z,67.86
2022-08-29T11:17:10.096Z,67.76
2022-08-29T11:19:11.424Z,67.89
2022-08-29T11:21:12.761Z,67.77
2022-08-29T11:23:14.134Z,67.80
2022-08-29T11:25:15.956Z,67.83
2022-08-29T11:27:17.315Z,67.81
2022-08-29T11:29:18.745Z,68.03
2022-08-29T11:31:20.116Z,67.81
2022-08-29T11:33:22.260Z,67.74
2022-08-29T11:35:23.612Z,67.92
2022-08-29T11:37:25.600Z,68.01
2022-08-29T11:39:26.919Z,67.79
2022-08-29T11:41:29.174Z,67.91
2022-08-29T11:43:31.127Z,67.92
2022-08-29T11:45:36.900Z,67.86
2022-08-29T11:47:40.857Z,67.90
2022-08-29T11:49:42.853Z,67.84
2022-08-29T11:51:44.177Z,67.87
2022-08-29T11:53:45.500Z,68.06
2022-08-29T11:55:46.810Z,67.66
2022-08-29T11:57:48.139Z,67.70
2022-08-29T11:59:49.486Z,67.90
2022-08-29T12:01:50.858Z,67.50
2022-08-29T12:03:52.264Z,67.82
2022-08-29T12:05:53.839Z,67.92
2022-08-29T12:07:55.386Z,67.76
2022-08-29T12:09:56.726Z,67.75
2022-08-29T12:11:58.115Z,67.63
2022-08-29T12:13:59.564Z,67.58
2022-08-29T12:16:02.763Z,67.58
2022-08-29T12:18:04.421Z,67.46
2022-08-29T12:20:07.536Z,67.75
2022-08-29T12:22:14.126Z,67.50
2022-08-29T12:24:23.791Z,67.34
2022-08-29T12:26:25.104Z,67.44
2022-08-29T12:28:31.301Z,67.41
2022-08-29T12:30:32.734Z,67.40
2022-08-29T12:32:34.123Z,67.51
2022-08-29T12:34:35.895Z,67.47
2022-08-29T12:36:37.386Z,67.45
2022-08-29T12:38:42.026Z,67.38
2022-08-29T12:40:43.944Z,67.37
2022-08-29T12:42:45.371Z,67.30
2022-08-29T12:44:46.884Z,67.40
2022-08-29T12:46:48.304Z,67.15
2022-08-29T12:48:57.650Z,67.53
2022-08-29T12:51:00.775Z,67.43
2022-08-29T12:53:02.288Z,67.50
2022-08-29T12:55:03.626Z,67.38
2022-08-29T12:57:04.972Z,67.66
2022-08-29T12:59:06.421Z,67.37
2022-08-29T13:01:07.871Z,67.43
2022-08-29T13:03:09.528Z,67.66
2022-08-29T13:05:16.824Z,67.72
2022-08-29T13:07:18.494Z,67.66
2022-08-29T13:09:19.873Z,67.71
2022-08-29T13:11:21.248Z,67.71
2022-08-29T13:13:22.638Z,67.66
2022-08-29T13:15:30.832Z,67.56
2022-08-29T13:17:34.552Z,67.45
2022-08-29T13:19:36.312Z,67.65
2022-08-29T13:21:37.636Z,67.66
2022-08-29T13:23:39.203Z,67.54
2022-08-29T13:25:40.597Z,67.68
2022-08-29T13:27:42.045Z,67.50
2022-08-29T13:29:43.401Z,67.70
2022-08-29T13:31:44.863Z,67.58
2022-08-29T13:33:46.238Z,67.68
2022-08-29T13:35:47.551Z,67.76
2022-08-29T13:37:48.864Z,67.71
2022-08-29T13:39:50.233Z,67.71
2022-08-29T13:41:51.649Z,67.44
2022-08-29T13:43:52.969Z,67.62
2022-08-29T13:45:54.316Z,67.67
2022-08-29T13:47:55.761Z,67.54
2022-08-29T13:49:57.139Z,67.84
2022-08-29T13:51:58.566Z,67.90
2022-08-29T13:53:59.932Z,67.80
2022-08-29T13:56:01.298Z,67.81
2022-08-29T13:58:02.939Z,68.00
2022-08-29T14:00:05.260Z,68.03
2022-08-29T14:02:09.076Z,68.13
2022-08-29T14:04:36.820Z,68.31
2022-08-29T14:06:51.471Z,68.31
2022-08-29T14:08:53.186Z,68.17
2022-08-29T14:10:54.531Z,68.09
2022-08-29T14:12:55.867Z,68.38
2022-08-29T14:14:57.193Z,68.50
2022-08-29T14:16:58.793Z,68.29
2022-08-29T14:19:00.187Z,68.37
2022-08-29T14:21:01.498Z,68.33
2022-08-29T14:23:02.844Z,68.24
2022-08-29T14:25:04.262Z,68.21
2022-08-29T14:27:05.570Z,68.41
2022-08-29T14:29:06.962Z,68.40
2022-08-29T14:31:08.333Z,68.39
2022-08-29T14:33:09.739Z,68.33
2022-08-29T14:35:11.315Z,68.55
2022-08-29T14:37:27.706Z,68.23
2022-08-29T14:39:29.032Z,68.53
2022-08-29T14:41:30.356Z,68.66
2022-08-29T14:43:34.239Z,68.87
2022-08-29T14:45:37.784Z,68.88
2022-08-29T14:47:39.227Z,69.24
2022-08-29T14:49:40.599Z,69.11
2022-08-29T14:51:42.112Z,69.12
2022-08-29T14:53:51.566Z,69.45
2022-08-29T14:55:56.039Z,69.46
2022-08-29T14:57:57.423Z,69.58
2022-08-29T14:59:58.755Z,69.60
2022-08-29T15:02:00.152Z,69.49
2022-08-29T15:04:01.593Z,69.66
2022-08-29T15:06:02.933Z,69.50
2022-08-29T15:08:06.502Z,69.67
2022-08-29T15:10:08.239Z,69.66
2022-08-29T15:12:09.609Z,69.83
2022-08-29T15:14:10.967Z,69.71
2022-08-29T15:16:12.412Z,69.72
2022-08-29T15:18:30.589Z,69.76
2022-08-29T15:20:37.699Z,69.61
2022-08-29T15:22:39.944Z,69.78
2022-08-29T15:24:41.280Z,69.81
2022-08-29T15:26:44.919Z,69.53
2022-08-29T15:28:46.257Z,69.48
2022-08-29T15:30:47.739Z,69.76
2022-08-29T15:32:49.400Z,69.64
2022-08-29T15:34:50.756Z,69.90
2022-08-29T15:36:52.286Z,69.74
2022-08-29T15:38:53.607Z,69.66
2022-08-29T15:40:55.017Z,69.97
2022-08-29T15:42:56.472Z,70.03
2022-08-29T15:44:57.896Z,69.86
2022-08-29T15:46:59.250Z,69.89
2022-08-29T15:49:02.828Z,69.94
2022-08-29T15:51:04.986Z,70.00
2022-08-29T15:53:06.551Z,70.01
2022-08-29T15:55:08.035Z,69.78
2022-08-29T15:57:09.527Z,69.84
2022-08-29T15:59:10.848Z,69.69
2022-08-29T16:01:12.255Z,69.95
2022-08-29T16:03:13.692Z,69.78
2022-08-29T16:05:15.051Z,69.85
2022-08-29T16:07:16.881Z,69.88
2022-08-29T16:09:18.216Z,69.94
2022-08-29T16:11:19.567Z,70.20
2022-08-29T16:13:21.132Z,70.19
2022-08-29T16:15:22.886Z,70.31
2022-08-29T16:17:24.272Z,70.03
2022-08-29T16:19:25.694Z,69.88
2022-08-29T16:21:27.010Z,70.12
2022-08-29T16:23:28.319Z,70.15
2022-08-29T16:25:29.683Z,70.29
2022-08-29T16:27:31.009Z,70.38
2022-08-29T16:29:33.834Z,70.36
2022-08-29T16:31:35.264Z,70.20
2022-08-29T16:33:36.628Z,70.22
2022-08-29T16:35:37.963Z,70.27
2022-08-29T16:37:39.286Z,70.50
2022-08-29T16:39:40.631Z,70.41
2022-08-29T16:41:42.562Z,70.26
2022-08-29T16:43:43.927Z,70.39
2022-08-29T16:45:45.474Z,70.43
2022-08-29T16:47:47.250Z,70.30
2022-08-29T16:49:48.610Z,70.51
2022-08-29T16:51:49.988Z,70.39
2022-08-29T16:53:51.304Z,70.45
2022-08-29T16:55:52.632Z,70.41
2022-08-29T16:58:12.775Z,70.54
2022-08-29T17:00:14.178Z,70.55
2022-08-29T17:02:15.606Z,70.59
2022-08-29T17:04:16.931Z,70.87
2022-08-29T17:06:18.316Z,70.60
2022-08-29T17:08:19.599Z,70.40
2022-08-29T17:10:20.879Z,70.79
2022-08-29T17:12:22.164Z,70.35
2022-08-29T17:14:25.830Z,70.62
2022-08-29T17:16:27.178Z,70.59
2022-08-29T17:18:29.119Z,70.36
2022-08-29T17:20:34.196Z,70.89
2022-08-29T17:22:38.266Z,70.52
2022-08-29T17:24:40.322Z,70.85
2022-08-29T17:26:42.340Z,70.39
2022-08-29T17:28:44.237Z,70.63
2022-08-29T17:30:45.599Z,70.53
2022-08-29T17:32:47.007Z,70.73
2022-08-29T17:34:49.144Z,70.55
2022-08-29T17:36:50.515Z,70.99
2022-08-29T17:38:51.851Z,70.84
2022-08-29T17:40:53.693Z,70.96
2022-08-29T17:42:55.117Z,70.73
2022-08-29T17:44:57.800Z,70.90
2022-08-29T17:46:59.186Z,71.03
2022-08-29T17:49:04.220Z,70.76
2022-08-29T17:51:08.369Z,70.79
2022-08-29T17:53:09.765Z,71.09
2022-08-29T17:55:11.197Z,70.81
2022-08-29T17:57:12.527Z,71.09
2022-08-29T17:59:13.840Z,70.91
2022-08-29T18:01:16.530Z,71.17
2022-08-29T18:03:19.531Z,70.66
2022-08-29T18:05:20.942Z,71.08
2022-08-29T18:07:22.312Z,71.02
2022-08-29T18:09:23.654Z,71.32
2022-08-29T18:11:25.003Z,70.87
2022-08-29T18:13:26.315Z,70.99
2022-08-29T18:15:28.396Z,70.84
2022-08-29T18:17:32.075Z,71.11
2022-08-29T18:19:33.502Z,71.09
2022-08-29T18:21:34.923Z,70.71
2022-08-29T18:23:36.252Z,70.91
2022-08-29T18:25:37.580Z,71.00
2022-08-29T18:27:43.607Z,70.93
2022-08-29T18:29:45.599Z,70.87
2022-08-29T18:31:46.964Z,71.06
2022-08-29T18:34:03.619Z,70.83
2022-08-29T18:36:05.041Z,70.51
2022-08-29T18:38:07.855Z,70.15
2022-08-29T18:40:09.479Z,69.96
2022-08-29T18:42:30.443Z,70.20
2022-08-29T18:44:32.327Z,67.34
2022-08-29T18:46:33.699Z,65.12
2022-08-29T18:48:35.023Z,64.54
2022-08-29T18:50:39.099Z,62.66
2022-08-29T18:52:40.450Z,63.63
2022-08-29T18:54:41.907Z,64.77
2022-08-29T18:56:43.259Z,65.06
2022-08-29T18:58:44.720Z,63.93
2022-08-29T19:00:46.163Z,64.26
2022-08-29T19:02:50.766Z,64.54
2022-08-29T19:04:52.086Z,64.36
2022-08-29T19:06:53.501Z,65.48
2022-08-29T19:08:54.827Z,66.02
2022-08-29T19:10:56.231Z,66.21
2022-08-29T19:12:58.231Z,66.59
2022-08-29T19:15:00.185Z,66.57
2022-08-29T19:17:03.003Z,66.21
2022-08-29T19:19:05.462Z,66.25
2022-08-29T19:21:14.003Z,66.80
2022-08-29T19:23:16.077Z,66.92
2022-08-29T19:25:17.468Z,67.45
2022-08-29T19:27:41.750Z,67.24
2022-08-29T19:29:40.428Z,67.02
2022-08-29T19:31:44.826Z,66.97
2022-08-29T19:33:46.232Z,67.33
2022-08-29T19:35:49.765Z,67.43
2022-08-29T19:37:51.894Z,67.24
2022-08-29T19:39:53.400Z,67.51
2022-08-29T19:41:54.779Z,67.47
2022-08-29T19:43:56.836Z,68.06
2022-08-29T19:46:02.213Z,68.03
2022-08-29T19:48:03.813Z,68.45
2022-08-29T19:50:05.131Z,68.72
2022-08-29T19:52:06.746Z,68.22
2022-08-29T19:54:08.091Z,67.73
2022-08-29T19:56:09.892Z,67.69
2022-08-29T19:58:11.909Z,67.15
2022-08-29T20:00:13.964Z,67.24
2022-08-29T20:02:15.564Z,67.01
2022-08-29T20:04:17.264Z,66.96
2022-08-29T20:06:18.752Z,66.76
2022-08-29T20:08:21.134Z,66.68
2022-08-29T20:10:22.837Z,66.70
2022-08-29T20:12:24.256Z,66.87
2022-08-29T20:14:25.587Z,67.23
2022-08-29T20:16:27.427Z,66.22
2022-08-29T20:18:28.791Z,66.56
2022-08-29T20:20:30.521Z,65.71
2022-08-29T20:22:31.875Z,66.65
2022-08-29T20:24:34.409Z,67.37
2022-08-29T20:26:35.810Z,67.12
2022-08-29T20:28:37.124Z,67.14
2022-08-29T20:30:38.516Z,67.30
2022-08-29T20:32:39.864Z,68.04
2022-08-29T20:34:41.361Z,67.60
2022-08-29T20:37:01.271Z,67.52
2022-08-29T20:39:02.660Z,67.43
2022-08-29T20:41:04.579Z,67.74
2022-08-29T20:43:06.937Z,67.56
2022-08-29T20:45:08.269Z,69.07
2022-08-29T20:47:09.656Z,67.01
2022-08-29T20:49:13.939Z,67.24
2022-08-29T20:51:15.250Z,66.70
2022-08-29T20:53:32.081Z,67.07
2022-08-29T20:55:34.220Z,67.34
2022-08-29T20:57:39.070Z,67.47
2022-08-29T20:59:40.436Z,65.81
2022-08-29T21:01:43.197Z,67.89
2022-08-29T21:04:03.265Z,66.99
2022-08-29T21:06:04.738Z,66.91
2022-08-29T21:08:06.064Z,66.94
2022-08-29T21:10:07.609Z,67.04
2022-08-29T21:12:08.938Z,67.42
2022-08-29T21:14:10.340Z,67.28
2022-08-29T21:16:11.854Z,67.42
2022-08-29T21:18:13.309Z,67.08
2022-08-29T21:20:14.627Z,67.54
2022-08-29T21:22:16.395Z,67.81
2022-08-29T21:24:17.801Z,67.14
2022-08-29T21:26:19.188Z,68.22
2022-08-29T21:28:20.524Z,67.55
2022-08-29T21:30:23.752Z,67.90
2022-08-29T21:32:25.148Z,65.12
2022-08-29T21:34:26.559Z,65.66
2022-08-29T21:36:29.059Z,67.12
2022-08-29T21:38:30.440Z,66.80
2022-08-29T21:40:31.906Z,66.43
2022-08-29T21:42:33.283Z,66.31
2022-08-29T21:44:34.644Z,66.59
2022-08-29T21:46:36.021Z,66.40
2022-08-29T21:48:37.399Z,66.63
2022-08-29T21:50:38.790Z,66.98
2022-08-29T21:52:40.173Z,67.10
2022-08-29T21:54:41.496Z,66.88
2022-08-29T21:56:43.052Z,67.09
2022-08-29T21:58:44.458Z,67.03
2022-08-29T22:00:45.847Z,67.20
2022-08-29T22:02:47.260Z,67.41
2022-08-29T22:04:48.651Z,66.77
2022-08-29T22:06:52.822Z,67.17
2022-08-29T22:08:54.398Z,68.13
2022-08-29T22:10:56.844Z,68.56
2022-08-29T22:12:58.247Z,68.82
2022-08-29T22:15:18.155Z,69.04
2022-08-29T22:17:19.508Z,69.31
2022-08-29T22:19:21.047Z,69.43
2022-08-29T22:21:22.400Z,69.50
2022-08-29T22:23:24.550Z,69.82
2022-08-29T22:25:26.031Z,69.93
2022-08-29T22:27:27.369Z,70.22
2022-08-29T22:29:28.722Z,70.32
2022-08-29T22:31:31.911Z,70.18
2022-08-29T22:33:33.339Z,70.24
2022-08-29T22:35:34.668Z,70.28
2022-08-29T22:37:36.841Z,70.50
2022-08-29T22:39:39.418Z,70.80
2022-08-29T22:41:45.422Z,70.75
2022-08-29T22:43:48.734Z,70.75
2022-08-29T22:45:50.686Z,70.93
2022-08-29T22:47:54.508Z,70.97
2022-08-29T22:49:55.859Z,71.27
2022-08-29T22:51:57.196Z,71.29
2022-08-29T22:54:17.048Z,71.48
2022-08-29T22:56:18.375Z,71.38
2022-08-29T22:58:19.703Z,71.20
2022-08-29T23:00:21.078Z,71.52
2022-08-29T23:02:22.528Z,70.44
2022-08-29T23:04:23.887Z,70.65
2022-08-29T23:06:25.294Z,71.26
2022-08-29T23:08:26.677Z,71.32
2022-08-29T23:10:28.487Z,71.59
2022-08-29T23:12:30.111Z,71.64
2022-08-29T23:14:31.443Z,71.72
2022-08-29T23:16:35.611Z,71.74
2022-08-29T23:18:36.969Z,71.55
2022-08-29T23:20:38.512Z,71.95
2022-08-29T23:22:42.831Z,71.71
2022-08-29T23:24:53.791Z,72.01
2022-08-29T23:26:59.979Z,72.15
2022-08-29T23:29:01.357Z,72.22
2022-08-29T23:31:02.755Z,72.30
2022-08-29T23:33:04.179Z,72.02
2022-08-29T23:35:05.515Z,72.27
2022-08-29T23:37:06.869Z,72.39
2022-08-29T23:39:08.227Z,72.74
2022-08-29T23:41:09.544Z,73.37
2022-08-29T23:43:10.899Z,73.69
2022-08-29T23:45:12.214Z,73.40
2022-08-29T23:47:13.551Z,73.55
2022-08-29T23:49:15.051Z,73.49
2022-08-29T23:51:16.436Z,74.22
2022-08-29T23:53:17.857Z,73.60
2022-08-29T23:55:19.284Z,73.81
2022-08-29T23:57:20.696Z,73.66
2022-08-29T23:59:40.574Z,73.56
